Time;durP1;ratioP1;P1;durP2;ratioP2;P2;SDS_P1;SDS_P2;PMS_P1;PMS_P2;Temp;Humidity;BMP_temperature;BMP_pressure;BME280_temperature;BME280_humidity;BME280_pressure;Samples;Min_cycle;Max_cycle;Signal;HPM_P1;HPM_P2
2022/07/10 00:02:31;;;;;;;7.82;1.80;;;;;;;15.01;87.98;101655.88;8323709;28;20276;-61
2022/07/10 00:06:32;;;;;;;9.48;1.80;;;;;;;14.86;90.07;101651.84;8322582;28;20039;-61
2022/07/10 00:10:33;;;;;;;8.80;1.30;;;;;;;14.80;91.48;101643.38;8328112;28;20049;-61
2022/07/10 00:14:33;;;;;;;4.05;1.30;;;;;;;14.64;92.76;101646.63;8319456;28;20117;-61
2022/07/10 00:18:34;;;;;;;7.70;1.58;;;;;;;14.63;93.01;101649.47;8326048;28;20584;-61
2022/07/10 00:22:34;;;;;;;4.25;1.30;;;;;;;14.69;91.53;101644.34;8328943;28;20037;-61
2022/07/10 00:26:35;;;;;;;8.35;1.90;;;;;;;14.81;90.23;101637.78;8329458;28;20053;-61
2022/07/10 00:30:35;;;;;;;6.20;1.60;;;;;;;14.79;90.49;101636.22;8330070;28;20410;-61
2022/07/10 00:34:36;;;;;;;9.60;1.52;;;;;;;14.64;91.71;101641.16;8322789;28;20030;-61
2022/07/10 00:38:37;;;;;;;12.20;2.20;;;;;;;14.46;92.52;101642.88;8329482;28;20112;-61
2022/07/10 00:42:37;;;;;;;11.48;1.80;;;;;;;14.44;90.99;101639.41;8328927;28;20486;-61
2022/07/10 00:46:37;;;;;;;11.38;1.48;;;;;;;14.42;91.19;101641.41;8329012;28;20670;-61
2022/07/10 00:50:38;;;;;;;8.73;1.50;;;;;;;14.47;90.96;101639.13;8328632;28;20033;-61
2022/07/10 00:54:42;;;;;;;13.27;1.33;;;;;;;14.45;91.14;101641.13;8327798;28;20033;-61
2022/07/10 00:58:45;;;;;;;6.38;1.40;;;;;;;14.39;92.18;101640.84;8329037;28;20045;-61
2022/07/10 01:02:45;;;;;;;8.48;1.67;;;;;;;14.16;94.48;101636.53;8325912;28;20072;-61
2022/07/10 01:06:46;;;;;;;8.18;1.65;;;;;;;14.28;93.00;101633.63;8324744;28;20490;-61
2022/07/10 01:10:47;;;;;;;6.25;1.65;;;;;;;14.37;94.20;101627.38;8324434;28;20117;-61
2022/07/10 01:14:48;;;;;;;8.05;1.73;;;;;;;14.27;95.63;101626.44;8328762;28;20453;-61
2022/07/10 01:18:48;;;;;;;14.35;1.60;;;;;;;14.27;95.77;101615.56;8328025;28;20033;-61
2022/07/10 01:22:48;;;;;;;5.35;1.40;;;;;;;14.59;92.35;101613.53;8327947;28;20038;-61
2022/07/10 01:26:49;;;;;;;8.00;1.70;;;;;;;14.69;91.94;101617.13;8341980;28;20047;-61
2022/07/10 01:30:49;;;;;;;5.38;1.27;;;;;;;14.79;91.82;101596.22;8336990;28;20640;-61
2022/07/10 01:34:50;;;;;;;9.93;1.38;;;;;;;14.87;90.70;101593.66;8327985;28;20052;-61
2022/07/10 01:38:51;;;;;;;14.77;1.90;;;;;;;14.89;91.24;101597.09;8328044;28;20038;-61
2022/07/10 01:42:52;;;;;;;7.07;1.30;;;;;;;14.96;90.61;101598.25;8326962;28;20045;-61
2022/07/10 01:46:52;;;;;;;9.48;1.95;;;;;;;15.15;91.51;101597.38;8327785;28;20029;-61
2022/07/10 01:50:52;;;;;;;3.25;1.40;;;;;;;15.17;90.11;101596.25;8327473;28;20044;-61
2022/07/10 01:54:53;;;;;;;4.70;1.27;;;;;;;15.05;90.34;101593.81;8320831;28;20064;-62
2022/07/10 01:58:53;;;;;;;5.25;1.10;;;;;;;15.02;90.35;101592.25;8324387;28;20268;-62
2022/07/10 02:07:17;;;;;;;8.10;1.50;;;;;;;15.03;90.50;101599.41;8326971;28;20458;-62
2022/07/10 02:11:18;;;;;;;7.72;1.50;;;;;;;15.10;90.49;101592.34;8323978;28;20161;-62
2022/07/10 02:15:18;;;;;;;6.72;1.40;;;;;;;15.15;90.57;101591.94;8321590;28;20033;-62
2022/07/10 02:19:19;;;;;;;4.55;1.30;;;;;;;15.14;91.37;101595.66;8326956;28;20108;-62
2022/07/10 02:23:19;;;;;;;6.70;1.30;;;;;;;15.21;91.23;101586.78;8327177;28;20034;-62
2022/07/10 02:27:19;;;;;;;10.37;1.87;;;;;;;15.23;90.47;101584.78;8326944;28;20079;-62
2022/07/10 02:31:20;;;;;;;5.32;1.13;;;;;;;15.26;89.79;101573.59;8326282;28;20358;-62
2022/07/10 02:35:20;;;;;;;11.80;1.83;;;;;;;15.29;90.06;101588.78;8325794;28;20048;-62
2022/07/10 02:39:23;;;;;;;6.80;1.13;;;;;;;15.20;89.83;101578.75;8326143;28;20287;-62
2022/07/10 02:43:23;;;;;;;6.75;1.60;;;;;;;15.13;90.28;101581.19;8320222;28;20355;-62
2022/07/10 02:47:23;;;;;;;6.40;1.67;;;;;;;15.06;90.74;101571.88;8323620;28;20096;-62
2022/07/10 02:51:24;;;;;;;10.77;1.67;;;;;;;14.92;92.62;101575.03;8325728;28;20034;-62
2022/07/10 02:55:24;;;;;;;7.57;2.05;;;;;;;14.91;94.11;101573.31;8325445;28;20260;-62
2022/07/10 02:59:25;;;;;;;9.90;1.63;;;;;;;14.87;94.97;101585.50;8325959;28;20035;-62
2022/07/10 03:03:43;;;;;;;8.63;1.43;;;;;;;14.76;95.15;101576.59;8325043;28;20781;-62
2022/07/10 03:07:44;;;;;;;9.15;2.15;;;;;;;14.74;95.28;101575.88;8325238;28;20276;-62
2022/07/10 03:11:44;;;;;;;8.60;1.87;;;;;;;14.67;96.50;101586.44;8325419;28;20081;-62
2022/07/10 03:15:44;;;;;;;5.05;1.35;;;;;;;14.65;96.49;101593.03;8325367;28;20276;-62
2022/07/10 03:19:45;;;;;;;4.68;1.65;;;;;;;14.75;95.24;101593.91;8325032;28;20121;-62
2022/07/10 03:23:45;;;;;;;8.47;2.20;;;;;;;14.70;95.92;101580.72;8324675;28;20342;-62
2022/07/10 03:27:45;;;;;;;3.30;1.20;;;;;;;14.68;96.91;101577.31;8325146;28;20843;-62
2022/07/10 03:31:46;;;;;;;5.82;1.90;;;;;;;14.60;96.82;101576.25;8324972;28;20272;-62
2022/07/10 03:35:46;;;;;;;5.47;1.73;;;;;;;14.56;97.14;101573.00;8304707;28;20470;-62
2022/07/10 03:39:47;;;;;;;7.78;1.80;;;;;;;14.46;97.27;101573.97;8324570;28;20326;-62
2022/07/10 03:43:47;;;;;;;6.22;1.67;;;;;;;14.41;98.94;101568.94;8327767;28;20124;-62
2022/07/10 03:47:48;;;;;;;8.82;2.15;;;;;;;14.39;98.12;101581.81;8331018;28;20041;-62
2022/07/10 03:51:48;;;;;;;4.80;1.70;;;;;;;14.39;98.34;101581.81;8331517;28;20049;-62
2022/07/10 03:55:49;;;;;;;5.93;1.50;;;;;;;14.39;98.70;101576.38;8330960;28;20049;-62
2022/07/10 03:59:49;;;;;;;5.80;1.88;;;;;;;14.40;98.40;101577.25;8331070;28;20397;-62
2022/07/10 04:03:49;;;;;;;8.00;1.75;;;;;;;14.49;97.96;101576.41;8353014;28;20034;-61
2022/07/10 04:07:50;;;;;;;5.97;1.95;;;;;;;14.56;97.37;101573.00;8330314;28;20391;-62
2022/07/10 04:11:51;;;;;;;7.85;1.58;;;;;;;14.72;96.64;101567.84;8330837;28;20052;-62
2022/07/10 04:15:51;;;;;;;8.32;1.80;;;;;;;14.83;96.65;101570.44;8330470;28;20041;-62
2022/07/10 04:19:51;;;;;;;10.10;2.07;;;;;;;15.07;93.69;101573.56;8330756;28;20045;-62
2022/07/10 04:23:52;;;;;;;10.77;2.15;;;;;;;15.16;93.63;101577.31;8321300;28;20276;-62
2022/07/10 04:27:52;;;;;;;5.50;1.67;;;;;;;15.34;93.11;101595.50;8325225;28;20045;-62
2022/07/10 04:31:53;;;;;;;4.47;1.70;;;;;;;15.54;92.03;101589.06;8330333;28;20099;-61
2022/07/10 04:35:53;;;;;;;12.50;2.47;;;;;;;15.77;92.21;101588.72;8330348;28;20038;-62
2022/07/10 04:39:53;;;;;;;8.83;1.50;;;;;;;15.89;90.35;101587.53;8330118;28;20041;-62
2022/07/10 04:43:54;;;;;;;5.97;2.08;;;;;;;16.22;88.80;101589.72;8329372;28;20837;-62
2022/07/10 04:47:54;;;;;;;9.27;3.00;;;;;;;16.27;87.02;101592.84;8329334;28;20033;-62
2022/07/10 04:51:56;;;;;;;5.90;2.08;;;;;;;16.06;87.68;101584.03;8317921;28;20132;-62
2022/07/10 04:55:56;;;;;;;7.38;2.05;;;;;;;16.07;88.09;101592.06;8324326;28;20455;-62
2022/07/10 04:59:56;;;;;;;9.82;2.30;;;;;;;15.94;87.98;101590.66;8329939;28;20128;-62
2022/07/10 05:03:57;;;;;;;9.57;2.20;;;;;;;15.92;87.64;101592.72;8329481;28;20033;-62
2022/07/10 05:07:58;;;;;;;12.13;1.92;;;;;;;15.96;89.82;101591.38;8328982;28;20041;-62
2022/07/10 05:11:59;;;;;;;9.20;2.17;;;;;;;15.95;90.96;101586.97;8329411;28;20395;-62
2022/07/10 05:15:59;;;;;;;7.38;1.90;;;;;;;16.29;90.66;101591.69;8318441;28;20101;-62
2022/07/10 05:19:59;;;;;;;5.00;2.00;;;;;;;16.53;87.68;101594.72;8329512;28;20533;-62
2022/07/10 05:24:00;;;;;;;6.47;1.60;;;;;;;16.56;86.86;101593.59;8328407;28;20288;-62
2022/07/10 05:28:00;;;;;;;11.70;2.53;;;;;;;16.91;85.66;101589.03;8328116;28;20277;-62
2022/07/10 05:32:01;;;;;;;11.77;2.80;;;;;;;16.93;84.37;101597.06;8329133;28;20045;-62
2022/07/10 05:36:01;;;;;;;6.10;1.98;;;;;;;16.86;86.47;101602.28;8327468;28;20473;-62
2022/07/10 05:40:03;;;;;;;8.93;2.10;;;;;;;16.89;85.76;101601.09;8327791;28;20521;-62
2022/07/10 05:44:03;;;;;;;7.03;2.25;;;;;;;17.12;85.20;101605.97;8327894;28;20041;-62
2022/07/10 05:48:04;;;;;;;8.18;2.53;;;;;;;17.29;84.64;101604.22;8328318;28;20560;-62
2022/07/10 05:52:05;;;;;;;5.32;1.98;;;;;;;17.12;85.07;101607.84;8320652;28;20490;-62
2022/07/10 05:56:05;;;;;;;5.75;2.30;;;;;;;16.95;84.70;101606.81;8321525;28;20044;-62
2022/07/10 06:00:07;;;;;;;9.63;2.65;;;;;;;17.03;86.26;101611.50;8327408;28;20037;-62
2022/07/10 06:04:08;;;;;;;5.28;2.33;;;;;;;17.34;83.65;101610.97;8320263;28;20124;-62
2022/07/10 06:08:11;;;;;;;10.30;2.75;;;;;;;18.04;82.13;101606.38;8322090;28;20069;-62
2022/07/10 06:12:11;;;;;;;11.77;2.03;;;;;;;18.05;79.69;101606.22;8324769;28;20045;-62
2022/07/10 06:16:11;;;;;;;8.77;2.40;;;;;;;17.52;81.21;101605.50;8327573;28;20098;-62
2022/07/10 06:20:12;;;;;;;8.60;2.17;;;;;;;17.38;81.08;101619.69;8327507;28;20775;-62
2022/07/10 06:24:12;;;;;;;8.60;1.65;;;;;;;17.09;82.49;101610.88;8326755;28;21362;-62
2022/07/10 06:28:13;;;;;;;4.97;1.40;;;;;;;17.11;84.17;101612.44;8327418;28;20033;-62
2022/07/10 06:32:13;;;;;;;5.38;1.52;;;;;;;17.11;83.50;101626.09;8327430;28;20264;-62
2022/07/10 06:36:13;;;;;;;8.88;2.55;;;;;;;17.05;84.35;101612.22;8327224;28;20390;-62
2022/07/10 06:40:15;;;;;;;7.60;2.20;;;;;;;17.51;84.56;101625.66;8326002;28;20390;-62
2022/07/10 06:44:15;;;;;;;7.53;1.95;;;;;;;17.67;81.33;101620.31;8326165;28;20702;-62
2022/07/10 06:48:16;;;;;;;7.43;1.63;;;;;;;17.51;81.18;101620.22;8325663;28;20092;-62
2022/07/10 06:52:17;;;;;;;7.07;1.73;;;;;;;17.50;81.65;101623.94;8324481;28;20743;-62
2022/07/10 06:56:18;;;;;;;5.80;1.60;;;;;;;17.62;82.06;101628.13;8310044;28;20295;-62
2022/07/10 07:00:19;;;;;;;8.43;1.75;;;;;;;17.49;82.16;101633.16;8325556;28;20064;-62
2022/07/10 07:04:19;;;;;;;8.63;1.45;;;;;;;17.22;82.75;101625.03;8324620;28;20056;-62
2022/07/10 07:08:20;;;;;;;9.50;2.03;;;;;;;17.12;83.17;101629.72;8325855;28;20537;-62
2022/07/10 07:12:21;;;;;;;3.67;1.75;;;;;;;16.97;83.68;101636.72;8325722;28;20038;-62
2022/07/10 07:16:27;;;;;;;8.00;1.70;;;;;;;17.03;83.59;101641.56;8313685;28;20044;-62
2022/07/10 07:24:49;;;;;;;11.70;1.85;;;;;;;17.33;83.82;101635.72;8324936;28;20525;-62
2022/07/10 07:28:49;;;;;;;15.53;2.17;;;;;;;17.52;84.57;101630.13;8317929;28;20392;-62
2022/07/10 07:32:49;;;;;;;10.07;1.95;;;;;;;17.52;81.84;101635.59;8323232;28;20273;-62
2022/07/10 07:36:50;;;;;;;10.68;1.48;;;;;;;17.80;83.35;101631.69;8325136;28;20037;-62
2022/07/10 07:40:50;;;;;;;4.57;1.70;;;;;;;17.77;81.00;101629.28;8321788;28;20507;-62
2022/07/10 07:44:51;;;;;;;9.43;1.90;;;;;;;17.74;80.33;101621.41;8314524;28;20276;-62
2022/07/10 07:48:51;;;;;;;10.82;1.95;;;;;;;17.99;80.74;101626.00;8321712;28;20391;-62
2022/07/10 07:52:52;;;;;;;5.78;1.15;;;;;;;18.16;80.65;101621.50;8323965;28;20482;-62
2022/07/10 07:56:52;;;;;;;8.13;1.48;;;;;;;18.20;77.58;101631.97;8318126;28;20061;-62
2022/07/10 08:00:53;;;;;;;6.63;1.17;;;;;;;18.06;76.01;101621.63;8324216;28;20041;-62
2022/07/10 08:04:53;;;;;;;4.80;1.10;;;;;;;18.51;78.50;101622.22;8322783;28;20037;-62
2022/07/10 08:08:53;;;;;;;9.02;1.80;;;;;;;18.73;77.08;101610.66;8313681;28;20050;-62
2022/07/10 08:12:54;;;;;;;11.93;1.67;;;;;;;18.75;74.56;101614.09;8324349;28;20144;-62
2022/07/10 08:16:55;;;;;;;6.88;1.42;;;;;;;18.63;74.10;101615.41;8324335;28;20280;-62
2022/07/10 08:20:55;;;;;;;7.97;1.38;;;;;;;18.69;75.31;101603.78;8324081;28;20049;-62
2022/07/10 08:24:56;;;;;;;6.30;1.13;;;;;;;18.40;74.95;101605.22;8310047;28;20041;-62
2022/07/10 08:28:57;;;;;;;9.63;1.33;;;;;;;18.25;75.35;101615.91;8310820;28;20331;-62
2022/07/10 08:32:57;;;;;;;7.50;1.63;;;;;;;18.00;75.94;101616.81;8308222;28;20514;-62
2022/07/10 08:36:58;;;;;;;7.35;1.70;;;;;;;17.80;76.80;101617.16;8299164;28;20553;-62
2022/07/10 08:41:02;;;;;;;4.60;1.15;;;;;;;17.96;75.97;101609.06;8312072;28;20068;-62
2022/07/10 08:45:02;;;;;;;6.50;1.25;;;;;;;18.24;75.39;101603.22;8308687;28;20042;-62
2022/07/10 08:49:10;;;;;;;8.25;1.30;;;;;;;18.97;72.97;101601.66;8300201;28;20073;-62
2022/07/10 08:53:22;;;;;;;5.75;0.98;;;;;;;19.13;71.38;101608.00;8292936;28;20046;-62
2022/07/10 08:57:24;;;;;;;5.50;1.35;;;;;;;19.41;71.96;101605.84;8302524;28;20044;-62
2022/07/10 09:01:25;;;;;;;7.75;1.23;;;;;;;19.21;73.27;101604.41;8315717;28;20368;-62
2022/07/10 09:05:26;;;;;;;8.25;1.48;;;;;;;19.09;73.56;101605.78;8310409;28;20033;-62
2022/07/10 09:09:27;;;;;;;7.07;1.48;;;;;;;18.94;73.93;101600.09;8313529;28;20061;-62
2022/07/10 09:13:27;;;;;;;5.30;1.33;;;;;;;19.15;74.96;101595.00;8314362;28;20557;-62
2022/07/10 09:17:27;;;;;;;6.60;1.23;;;;;;;19.17;74.05;101587.47;8309741;28;20082;-62
2022/07/10 09:21:32;;;;;;;4.63;1.27;;;;;;;19.01;73.83;101594.81;8302294;28;20048;-62
2022/07/10 09:25:34;;;;;;;6.38;1.33;;;;;;;18.74;75.17;101593.22;8297370;28;20268;-62
2022/07/10 09:29:56;;;;;;;7.45;1.30;;;;;;;18.67;75.72;101589.41;8295351;28;20045;-62
2022/07/10 09:33:57;;;;;;;4.47;1.25;;;;;;;18.82;75.40;101586.88;8303699;28;20045;-62
2022/07/10 09:37:57;;;;;;;4.90;1.10;;;;;;;18.74;74.89;101579.50;8309916;28;20124;-62
2022/07/10 09:41:57;;;;;;;3.87;0.90;;;;;;;18.81;75.74;101577.81;8307346;28;20049;-62
2022/07/10 09:45:58;;;;;;;2.53;0.98;;;;;;;18.85;74.93;101570.94;8306633;28;20308;-62
2022/07/10 09:49:58;;;;;;;7.03;1.27;;;;;;;18.76;76.71;101582.91;8307572;28;20053;-62
2022/07/10 09:54:02;;;;;;;5.15;1.15;;;;;;;18.75;76.29;101583.09;8306842;28;20049;-62
2022/07/10 09:58:06;;;;;;;11.03;1.90;;;;;;;18.82;76.26;101587.72;8310602;28;20056;-62
2022/07/10 10:02:09;;;;;;;3.80;1.05;;;;;;;18.99;75.59;101586.75;8312493;28;20041;-62
2022/07/10 10:06:18;;;;;;;8.20;1.33;;;;;;;19.03;75.78;101599.09;8309245;28;20048;-62
2022/07/10 10:10:20;;;;;;;8.45;1.30;;;;;;;19.13;75.21;101594.28;8305781;28;20045;-62
2022/07/10 10:14:23;;;;;;;9.35;1.58;;;;;;;18.71;76.77;101589.94;8297801;28;20115;-62
2022/07/10 10:18:25;;;;;;;5.32;1.58;;;;;;;18.87;77.89;101592.72;8291130;28;20179;-62
2022/07/10 10:22:27;;;;;;;6.15;1.42;;;;;;;18.93;77.25;101589.28;8297115;28;20466;-63
2022/07/10 10:26:28;;;;;;;5.15;1.30;;;;;;;18.96;77.82;101588.97;8304669;28;20200;-62
2022/07/10 10:30:29;;;;;;;5.97;1.50;;;;;;;19.52;76.39;101579.97;8301315;28;20053;-62
2022/07/10 10:34:41;;;;;;;3.45;1.08;;;;;;;19.81;73.95;101574.75;8288427;28;20041;-62
2022/07/10 10:43:16;;;;;;;4.15;0.82;;;;;;;21.37;69.24;101569.88;8390449;27;20390;-61
2022/07/10 10:47:17;;;;;;;5.93;1.13;;;;;;;21.49;69.98;101571.16;8367885;28;20555;-61
2022/07/10 10:51:17;;;;;;;6.50;1.10;;;;;;;21.34;69.25;101573.00;8366227;28;20400;-61
2022/07/10 10:55:20;;;;;;;8.60;1.23;;;;;;;21.09;73.31;101575.09;8366618;28;20271;-61
2022/07/10 10:59:49;;;;;;;5.45;1.40;;;;;;;20.60;71.52;101570.06;8365996;28;20094;-61
2022/07/10 11:04:12;;;;;;;6.22;1.00;;;;;;;21.71;69.78;101564.75;8364244;28;20045;-61
2022/07/10 11:08:13;;;;;;;6.80;5.10;;;;;;;23.81;65.32;101552.50;8360299;28;20049;-61
2022/07/10 11:12:13;;;;;;;3.17;1.23;;;;;;;23.38;64.76;101559.13;8364973;28;20504;-61
2022/07/10 11:16:14;;;;;;;7.07;1.20;;;;;;;23.94;64.73;101547.91;8367288;28;20197;-61
2022/07/10 11:20:14;;;;;;;4.80;1.30;;;;;;;22.17;67.33;101543.47;8367519;28;20275;-61
2022/07/10 11:28:51;;;;;;;5.30;1.08;;;;;;;20.51;74.75;101546.41;8326833;27;20934;-61
2022/07/10 11:32:52;;;;;;;3.15;0.70;;;;;;;20.17;75.08;101548.63;8316300;28;20461;-61
2022/07/10 11:36:52;;;;;;;3.30;1.10;;;;;;;19.65;76.31;101544.59;8318149;28;20139;-61
2022/07/10 11:40:54;;;;;;;2.53;0.87;;;;;;;19.69;77.45;101537.72;8317398;28;20049;-61
2022/07/10 11:44:55;;;;;;;3.38;1.20;;;;;;;20.46;74.68;101537.84;8317835;28;20683;-61
2022/07/10 11:48:56;;;;;;;8.48;1.27;;;;;;;20.85;74.38;101538.63;8317315;28;21548;-61
2022/07/10 11:52:57;;;;;;;6.40;1.45;;;;;;;20.10;74.99;101531.09;8315347;28;20488;-61
2022/07/10 11:57:06;;;;;;;4.63;1.60;;;;;;;19.59;77.31;101531.59;8325526;28;20049;-61
2022/07/10 12:01:08;;;;;;;4.05;2.03;;;;;;;19.59;76.50;101529.72;8324613;28;20064;-61
2022/07/10 12:05:32;;;;;;;6.55;1.63;;;;;;;19.84;76.31;101517.63;8319461;28;20044;-61
2022/07/10 12:09:36;;;;;;;4.15;1.20;;;;;;;20.80;73.80;101530.09;8317627;28;20046;-61
2022/07/10 12:13:37;;;;;;;7.22;1.70;;;;;;;20.86;72.30;101521.13;8320763;28;20513;-61
2022/07/10 12:17:50;;;;;;;7.97;1.50;;;;;;;20.75;74.48;101527.88;8315098;28;20452;-61
2022/07/10 12:21:51;;;;;;;3.80;1.45;;;;;;;20.85;73.64;101527.63;8321131;28;20045;-61
2022/07/10 12:25:51;;;;;;;4.90;1.20;;;;;;;20.81;73.89;101523.53;8320995;28;20417;-61
2022/07/10 12:30:01;;;;;;;3.88;1.40;;;;;;;21.44;72.96;101532.34;8320198;28;20040;-61
2022/07/10 12:34:03;;;;;;;6.75;1.60;;;;;;;21.67;71.31;101541.41;8322096;28;20136;-61
2022/07/10 12:38:04;;;;;;;5.22;1.55;;;;;;;20.88;71.52;101536.38;8317099;28;20539;-61
2022/07/10 12:42:06;;;;;;;4.40;1.27;;;;;;;21.00;73.71;101537.69;8298058;28;20428;-58
2022/07/10 12:46:16;;;;;;;5.35;1.73;;;;;;;20.93;73.10;101542.19;8300119;28;20049;-62
2022/07/10 12:50:18;;;;;;;5.75;1.58;;;;;;;20.34;74.07;101533.78;8298155;28;20053;-62
2022/07/10 12:54:35;;;;;;;2.85;1.42;;;;;;;20.16;75.45;101528.53;8306382;28;20045;-62
2022/07/10 12:58:35;;;;;;;2.97;1.60;;;;;;;20.21;75.42;101533.47;8298915;28;20609;-62
2022/07/10 13:02:36;;;;;;;7.72;1.92;;;;;;;20.20;74.71;101526.28;8298757;28;20349;-62
2022/07/10 13:06:38;;;;;;;4.22;1.45;;;;;;;20.00;76.01;101523.06;8297886;28;20041;-62
2022/07/10 13:10:41;;;;;;;4.80;1.73;;;;;;;19.87;76.57;101519.16;8299750;28;20132;-62
2022/07/10 13:14:41;;;;;;;2.75;1.90;;;;;;;19.77;76.53;101521.25;8295164;28;20220;-62
2022/07/10 13:18:43;;;;;;;11.45;1.88;;;;;;;19.81;76.70;101519.88;8297467;28;20274;-62
2022/07/10 13:22:43;;;;;;;5.75;1.50;;;;;;;19.93;77.44;101518.47;8292440;28;20041;-62
2022/07/10 13:26:43;;;;;;;5.40;2.05;;;;;;;20.06;77.24;101513.28;8302210;28;20104;-62
2022/07/10 13:30:45;;;;;;;5.97;2.05;;;;;;;20.38;75.58;101510.41;8294460;28;20064;-62
2022/07/10 13:34:45;;;;;;;6.65;2.00;;;;;;;20.87;73.95;101506.31;8282946;28;20033;-62
2022/07/10 13:38:49;;;;;;;7.80;2.10;;;;;;;21.26;72.40;101507.91;8304553;28;20129;-62
2022/07/10 13:42:49;;;;;;;8.25;2.05;;;;;;;21.51;71.20;101502.16;8299211;28;20045;-62
2022/07/10 13:46:50;;;;;;;4.85;1.92;;;;;;;21.74;70.51;101498.34;8305179;28;20107;-62
2022/07/10 13:50:51;;;;;;;7.00;1.98;;;;;;;21.65;70.16;101499.44;8296908;28;20041;-62
2022/07/10 13:54:52;;;;;;;4.15;1.83;;;;;;;22.35;70.23;101491.56;8294805;28;20548;-62
2022/07/10 13:58:53;;;;;;;5.22;1.70;;;;;;;22.59;67.57;101494.00;8284469;28;20754;-62
2022/07/10 14:02:55;;;;;;;9.57;1.80;;;;;;;21.94;68.59;101493.97;8298648;28;20057;-62
2022/07/10 14:06:56;;;;;;;7.60;1.60;;;;;;;21.71;70.68;101498.69;8281147;28;20571;-62
2022/07/10 14:10:56;;;;;;;3.45;1.55;;;;;;;21.53;70.69;101505.59;8300704;28;20480;-62
2022/07/10 14:14:57;;;;;;;6.75;1.60;;;;;;;21.17;72.00;101494.41;8309069;28;20056;-62
2022/07/10 14:18:58;;;;;;;6.43;1.70;;;;;;;21.12;72.99;101491.38;8297762;28;20124;-62
2022/07/10 14:22:58;;;;;;;4.45;1.65;;;;;;;21.56;72.36;101484.03;8298020;28;20049;-62
2022/07/10 14:26:59;;;;;;;8.27;1.65;;;;;;;21.85;71.41;101478.59;8304158;28;20052;-62
2022/07/10 14:31:03;;;;;;;5.90;1.70;;;;;;;22.39;68.90;101479.97;8295004;28;20375;-62
2022/07/10 14:35:03;;;;;;;6.35;2.10;;;;;;;22.37;67.72;101479.28;8310077;28;20103;-62
2022/07/10 14:39:04;;;;;;;6.65;1.60;;;;;;;22.05;68.48;101470.63;8292268;28;20045;-62
2022/07/10 14:43:04;;;;;;;7.38;2.00;;;;;;;22.05;69.35;101474.19;8289639;28;20136;-62
2022/07/10 14:47:05;;;;;;;6.05;1.77;;;;;;;22.19;71.20;101465.06;8290424;28;20572;-62
2022/07/10 14:51:05;;;;;;;3.30;1.70;;;;;;;22.17;67.84;101467.16;8289301;28;20093;-62
2022/07/10 14:55:07;;;;;;;6.63;1.58;;;;;;;22.20;68.17;101461.25;8287041;28;20640;-62
2022/07/10 14:59:07;;;;;;;5.32;1.52;;;;;;;22.47;68.53;101457.78;8287538;28;20041;-62
2022/07/10 15:03:08;;;;;;;4.07;1.20;;;;;;;22.22;70.03;101452.81;8285319;28;20081;-62
2022/07/10 15:07:08;;;;;;;9.55;1.77;;;;;;;22.00;69.14;101449.16;8291118;28;20669;-62
2022/07/10 15:11:09;;;;;;;5.25;1.42;;;;;;;21.74;70.73;101448.78;8316428;28;20046;-62
2022/07/10 15:15:10;;;;;;;5.65;1.45;;;;;;;21.48;70.93;101442.88;8315295;28;20505;-62
2022/07/10 15:19:11;;;;;;;6.18;1.80;;;;;;;21.49;70.77;101444.56;8306300;28;20145;-62
2022/07/10 15:23:12;;;;;;;2.92;1.80;;;;;;;21.71;70.87;101443.63;8292476;28;20037;-62
2022/07/10 15:27:13;;;;;;;3.72;1.40;;;;;;;21.65;70.76;101438.03;8311503;28;20041;-62
2022/07/10 15:31:13;;;;;;;6.60;1.45;;;;;;;21.65;70.59;101444.38;8287001;28;20150;-62
2022/07/10 15:35:14;;;;;;;3.80;1.15;;;;;;;21.61;71.53;101426.53;8285597;28;20893;-62
2022/07/10 15:39:15;;;;;;;6.18;4.32;;;;;;;21.75;70.76;101434.00;8284323;28;20038;-62
2022/07/10 15:43:15;;;;;;;6.47;2.88;;;;;;;21.97;70.79;101427.50;8285354;28;20053;-62
2022/07/10 15:47:16;;;;;;;3.38;2.03;;;;;;;21.99;71.27;101433.66;8297587;28;20056;-62
2022/07/10 15:51:17;;;;;;;8.75;2.55;;;;;;;21.87;70.24;101421.44;8313173;28;20532;-62
2022/07/10 15:55:17;;;;;;;3.70;1.77;;;;;;;21.88;69.72;101422.28;8287672;28;20405;-62
2022/07/10 15:59:22;;;;;;;3.78;2.35;;;;;;;21.68;70.23;101430.22;8293202;28;20083;-62
2022/07/10 16:03:23;;;;;;;2.95;1.52;;;;;;;21.79;71.12;101424.28;8304825;28;20072;-62
2022/07/10 16:07:23;;;;;;;5.38;2.10;;;;;;;21.61;71.15;101421.03;8314121;28;20041;-62
2022/07/10 16:11:23;;;;;;;2.42;1.50;;;;;;;21.58;71.31;101421.41;8312324;28;20371;-62
2022/07/10 16:15:24;;;;;;;4.80;1.60;;;;;;;21.53;71.89;101417.53;8318022;28;20034;-62
2022/07/10 16:19:24;;;;;;;3.45;3.10;;;;;;;21.48;72.70;101415.34;8301261;28;20042;-62
2022/07/10 16:23:25;;;;;;;4.70;2.13;;;;;;;21.61;72.55;101409.16;8298152;28;20482;-62
2022/07/10 16:27:25;;;;;;;5.70;1.55;;;;;;;21.71;71.81;101405.06;8290196;28;20364;-62
2022/07/10 16:31:25;;;;;;;3.17;1.27;;;;;;;21.76;71.69;101397.13;8318214;28;20039;-62
2022/07/10 16:35:27;;;;;;;16.98;12.25;;;;;;;21.80;71.84;101398.47;8319065;28;20025;-62
2022/07/10 16:39:27;;;;;;;4.78;1.67;;;;;;;21.77;72.23;101392.50;8318169;28;20045;-62
2022/07/10 16:43:30;;;;;;;5.28;1.83;;;;;;;21.66;71.54;101390.19;8317556;28;20052;-62
2022/07/10 16:47:31;;;;;;;3.50;1.40;;;;;;;21.56;72.11;101395.97;8302451;28;20436;-62
2022/07/10 16:51:32;;;;;;;2.85;1.33;;;;;;;21.52;72.27;101389.16;8289372;28;20033;-62
2022/07/10 16:55:32;;;;;;;2.42;1.30;;;;;;;21.44;72.29;101397.50;8288109;28;20042;-62
2022/07/10 16:59:33;;;;;;;2.95;1.10;;;;;;;21.38;72.43;101404.59;8290018;28;20485;-62
2022/07/10 17:03:33;;;;;;;4.35;1.23;;;;;;;21.34;72.07;101402.41;8310105;28;20111;-62
2022/07/10 17:07:34;;;;;;;3.38;1.20;;;;;;;21.40;72.06;101398.09;8309115;28;20064;-62
2022/07/10 17:11:34;;;;;;;2.85;1.40;;;;;;;21.37;72.55;101396.53;8286278;28;20037;-62
2022/07/10 17:15:35;;;;;;;2.50;1.50;;;;;;;21.38;72.02;101391.91;8306097;28;20044;-62
2022/07/10 17:19:35;;;;;;;4.32;1.45;;;;;;;21.41;72.14;101388.78;8303959;28;20281;-62
2022/07/10 17:23:36;;;;;;;5.55;2.50;;;;;;;21.47;72.75;101391.59;8307127;28;20060;-62
2022/07/10 17:27:36;;;;;;;5.43;1.60;;;;;;;21.49;72.91;101395.03;8291140;28;20439;-62
2022/07/10 17:31:36;;;;;;;4.07;1.57;;;;;;;21.51;73.38;101395.69;8286813;28;20609;-62
2022/07/10 17:35:37;;;;;;;2.72;1.30;;;;;;;21.44;73.02;101389.25;8285050;28;20293;-62
2022/07/10 17:39:37;;;;;;;2.67;1.33;;;;;;;21.32;73.36;101393.53;8284739;28;20061;-62
2022/07/10 17:43:38;;;;;;;4.10;1.20;;;;;;;21.24;73.02;101388.09;8286100;28;20419;-62
2022/07/10 17:47:38;;;;;;;5.17;1.07;;;;;;;21.17;73.63;101398.97;8285683;28;20329;-62
2022/07/10 17:51:39;;;;;;;4.87;1.03;;;;;;;21.17;73.93;101389.91;8316986;28;20784;-62
2022/07/10 17:55:39;;;;;;;3.97;1.38;;;;;;;21.17;73.94;101389.91;8285011;28;20367;-62
2022/07/10 17:59:39;;;;;;;6.40;1.30;;;;;;;21.14;74.16;101391.09;8285572;28;20125;-62
2022/07/10 18:03:40;;;;;;;3.97;1.00;;;;;;;21.14;74.24;101387.53;8293687;28;20132;-62
2022/07/10 18:07:40;;;;;;;4.55;1.20;;;;;;;21.11;73.89;101387.91;8284777;28;20044;-62
2022/07/10 18:11:41;;;;;;;5.05;1.10;;;;;;;21.15;73.80;101391.97;8279392;28;20041;-62
2022/07/10 18:15:41;;;;;;;4.32;1.20;;;;;;;21.13;74.22;101383.03;8299186;28;20308;-62
2022/07/10 18:19:42;;;;;;;5.05;1.00;;;;;;;21.11;74.38;101390.66;8307502;28;20433;-62
2022/07/10 18:23:43;;;;;;;3.00;1.00;;;;;;;21.14;74.26;101395.78;8303273;28;20033;-62
2022/07/10 18:27:43;;;;;;;3.35;1.20;;;;;;;21.14;74.45;101390.28;8293926;28;20053;-62
2022/07/10 18:31:44;;;;;;;2.37;1.20;;;;;;;21.13;74.91;101385.78;8292956;28;20049;-62
2022/07/10 18:35:44;;;;;;;4.53;1.45;;;;;;;21.08;75.21;101391.03;8284685;28;20569;-62
2022/07/10 18:39:45;;;;;;;4.28;1.20;;;;;;;21.10;75.27;101394.41;8288097;28;20364;-62
2022/07/10 18:43:45;;;;;;;1.27;0.90;;;;;;;21.04;75.64;101381.41;8286809;28;20184;-62
2022/07/10 18:47:45;;;;;;;2.00;1.33;;;;;;;21.05;75.51;101385.91;8281936;28;20111;-62
2022/07/10 18:51:46;;;;;;;3.63;1.20;;;;;;;21.01;75.83;101384.53;8286514;28;20037;-62
2022/07/10 18:55:46;;;;;;;5.47;1.50;;;;;;;20.96;75.86;101381.50;8283093;28;20417;-62
2022/07/10 18:59:47;;;;;;;2.55;0.95;;;;;;;20.91;75.81;101383.94;8286716;28;20092;-62